Roberta, Georgia
Current Conditions -  °F | °C
As of 3:15 PM on Thursday 29 Jan 2015 (Local Time) from KPXE Reporting Station
Clear Clear  
Wind Chill: 62°   Ceiling: Unl
Heat Index: 62°   Visibility: 10mi
Dew Point: 29°   Wind: 10mph
Humidity: 29%   Direction: 200°SSW
Pressure: 30.22"   Gusts: NA
Location:  32.72°N, 84.01°W
Report Text: KPXE 292015Z AUTO 20009KT 10SM CLR 17/M01 A3022 RMK AO2 T01651015
Loading
Personal Weather Stations






























Interactive Weather Map New forecast layout! Learn more

10-Day Weather Forecast

Advertisements
Track Severe Weather on mobile